Time;durP1;ratioP1;P1;durP2;ratioP2;P2;SDS_P1;SDS_P2;PMS_P1;PMS_P2;Temp;Humidity;BMP_temperature;BMP_pressure;BME280_temperature;BME280_humidity;BME280_pressure;Samples;Min_cycle;Max_cycle;Signal;HPM_P1;HPM_P2
2022/09/20 00:00:14;;;;;;;;;;;10.30;99.90;;;;;;4932150;29;20389;-77
2022/09/20 00:02:41;;;;;;;;;;;10.30;99.90;;;;;;4928176;29;19931;-78
2022/09/20 00:05:08;;;;;;;;;;;10.30;99.90;;;;;;4929380;29;19927;-78
2022/09/20 00:07:36;;;;;;;;;;;10.30;99.90;;;;;;4930826;29;20025;-76
2022/09/20 00:10:03;;;;;;;;;;;10.30;99.90;;;;;;4934709;29;19933;-78
2022/09/20 00:12:30;;;;;;;;;;;10.20;99.90;;;;;;4933710;29;19961;-79
2022/09/20 00:14:57;;;;;;;;;;;10.20;99.90;;;;;;4931620;29;20256;-78
2022/09/20 00:17:24;;;;;;;;;;;10.20;99.90;;;;;;4933041;29;20001;-77
2022/09/20 00:19:50;;;;;;;;;;;10.10;99.90;;;;;;4930530;29;19962;-79
2022/09/20 00:22:17;;;;;;;;;;;10.10;99.90;;;;;;4930494;29;19965;-78
2022/09/20 00:24:46;;;;;;;;;;;10.10;99.90;;;;;;4933576;29;19973;-77
2022/09/20 00:27:13;;;;;;;;;;;10.10;99.90;;;;;;4928040;29;19957;-77
2022/09/20 00:29:39;;;;;;;;;;;10.10;99.90;;;;;;4932345;29;19933;-79
2022/09/20 00:32:06;;;;;;;;;;;10.10;99.90;;;;;;4926390;29;20014;-78
2022/09/20 00:37:17;;;;;;;;;;;10.10;99.90;;;;;;4931860;29;20013;-78
2022/09/20 00:39:45;;;;;;;;;;;10.10;99.90;;;;;;4931445;29;19930;-78
2022/09/20 00:42:13;;;;;;;;;;;10.00;99.90;;;;;;4925516;29;20329;-78
2022/09/20 00:44:44;;;;;;;;;;;10.00;99.90;;;;;;4923572;29;19941;-79
2022/09/20 00:47:14;;;;;;;;;;;10.00;99.90;;;;;;4931137;29;19970;-77
2022/09/20 00:49:41;;;;;;;;;;;10.00;99.90;;;;;;4928885;29;19926;-77
2022/09/20 00:52:08;;;;;;;;;;;10.00;99.90;;;;;;4934641;29;20532;-78
2022/09/20 00:54:36;;;;;;;;;;;10.00;99.90;;;;;;4930249;29;19968;-78
2022/09/20 00:57:04;;;;;;;;;;;10.00;99.90;;;;;;4927679;29;20381;-78
2022/09/20 00:59:32;;;;;;;;;;;10.00;99.90;;;;;;4940665;29;20220;-78
2022/09/20 01:02:01;;;;;;;;;;;9.90;99.90;;;;;;4934773;29;20290;-77
2022/09/20 01:04:28;;;;;;;;;;;10.00;99.90;;;;;;4926945;29;19930;-79
2022/09/20 01:06:57;;;;;;;;;;;9.90;99.90;;;;;;4931723;29;19931;-78
2022/09/20 01:09:24;;;;;;;;;;;9.90;99.90;;;;;;4930979;29;20008;-77
2022/09/20 01:11:52;;;;;;;;;;;9.90;99.90;;;;;;4932258;29;19938;-78
2022/09/20 01:14:21;;;;;;;;;;;12.00;99.90;;;;;;4931534;29;20325;-79
2022/09/20 01:16:48;;;;;;;;;;;9.90;99.90;;;;;;4929351;29;20306;-78
2022/09/20 01:19:19;;;;;;;;;;;9.90;99.90;;;;;;4931912;29;20033;-79
2022/09/20 01:21:46;;;;;;;;;;;9.80;99.90;;;;;;4931056;29;19926;-77
2022/09/20 01:24:18;;;;;;;;;;;9.80;99.90;;;;;;4931962;29;19966;-79
2022/09/20 01:26:52;;;;;;;;;;;9.80;99.90;;;;;;4927877;29;19965;-78
2022/09/20 01:29:31;;;;;;;;;;;9.80;99.90;;;;;;4925506;29;20484;-79
2022/09/20 01:32:00;;;;;;;;;;;9.80;99.90;;;;;;4931112;29;19970;-77
2022/09/20 01:34:29;;;;;;;;;;;9.80;99.90;;;;;;4929909;29;19935;-79
2022/09/20 01:37:00;;;;;;;;;;;9.80;99.90;;;;;;4935071;29;20374;-78
2022/09/20 01:39:35;;;;;;;;;;;9.80;99.90;;;;;;4928740;29;19965;-77
2022/09/20 01:42:05;;;;;;;;;;;9.70;99.90;;;;;;4931411;29;19974;-77
2022/09/20 01:44:37;;;;;;;;;;;9.70;99.90;;;;;;4931070;29;20018;-78
2022/09/20 01:47:09;;;;;;;;;;;9.70;99.90;;;;;;4931751;29;20025;-78
2022/09/20 01:49:41;;;;;;;;;;;9.70;99.90;;;;;;4932993;28;20278;-78
2022/09/20 01:52:30;;;;;;;;;;;9.60;99.90;;;;;;4928351;29;19935;-78
2022/09/20 01:55:24;;;;;;;;;;;9.70;99.90;;;;;;4920263;29;20414;-78
2022/09/20 01:58:08;;;;;;;;;;;9.70;99.90;;;;;;4933444;29;19926;-76
2022/09/20 02:00:46;;;;;;;;;;;9.70;99.90;;;;;;4922715;28;20752;-78
2022/09/20 02:03:21;;;;;;;;;;;9.70;99.90;;;;;;4922028;29;19927;-77
2022/09/20 02:05:58;;;;;;;;;;;9.60;99.90;;;;;;4923319;29;19928;-78
2022/09/20 02:08:39;;;;;;;;;;;9.70;99.90;;;;;;4916561;29;20309;-78
2022/09/20 02:11:09;;;;;;;;;;;9.60;99.90;;;;;;4923844;29;19927;-79
2022/09/20 02:13:45;;;;;;;;;;;9.60;99.90;;;;;;4924584;29;20022;-77
2022/09/20 02:16:35;;;;;;;;;;;9.60;99.90;;;;;;4930595;29;20017;-79
2022/09/20 02:19:09;;;;;;;;;;;9.70;99.90;;;;;;4919213;29;19930;-79
2022/09/20 02:21:38;;;;;;;;;;;9.60;99.90;;;;;;4920310;29;20647;-78
2022/09/20 02:24:15;;;;;;;;;;;9.60;99.90;;;;;;4927046;29;20021;-78
2022/09/20 02:26:47;;;;;;;;;;;9.60;99.90;;;;;;4930342;29;20030;-78
2022/09/20 02:29:20;;;;;;;;;;;9.60;99.90;;;;;;4924815;29;20021;-78
2022/09/20 02:32:00;;;;;;;;;;;9.50;99.90;;;;;;4927803;29;20429;-78
2022/09/20 02:34:39;;;;;;;;;;;9.50;99.90;;;;;;4931954;29;20365;-78
2022/09/20 02:37:15;;;;;;;;;;;9.50;99.90;;;;;;4925318;29;20388;-78
2022/09/20 02:39:46;;;;;;;;;;;9.50;99.90;;;;;;4930002;29;19937;-78
2022/09/20 02:42:17;;;;;;;;;;;9.50;99.90;;;;;;4928314;29;19982;-78
2022/09/20 02:44:48;;;;;;;;;;;9.50;99.90;;;;;;4927467;29;20037;-77
2022/09/20 02:47:21;;;;;;;;;;;9.50;99.90;;;;;;4929358;29;20029;-78
2022/09/20 02:49:58;;;;;;;;;;;9.40;99.90;;;;;;4926645;28;20034;-77
2022/09/20 02:52:29;;;;;;;;;;;9.40;99.90;;;;;;4929684;29;19966;-78
2022/09/20 02:54:59;;;;;;;;;;;9.40;99.90;;;;;;4923904;29;19931;-77
2022/09/20 02:57:30;;;;;;;;;;;9.50;99.90;;;;;;4930998;29;19982;-78
2022/09/20 02:59:58;;;;;;;;;;;9.40;99.90;;;;;;4927740;29;20436;-78
2022/09/20 03:02:31;;;;;;;;;;;9.40;99.90;;;;;;4929896;29;20461;-78
2022/09/20 03:05:06;;;;;;;;;;;9.40;99.90;;;;;;4925297;29;19958;-78
2022/09/20 03:07:35;;;;;;;;;;;9.40;99.90;;;;;;4925087;29;20021;-78
2022/09/20 03:10:06;;;;;;;;;;;9.40;99.90;;;;;;4927627;29;20069;-79
2022/09/20 03:12:39;;;;;;;;;;;9.40;99.90;;;;;;4937555;29;19927;-78
2022/09/20 03:15:14;;;;;;;;;;;9.40;99.90;;;;;;4931160;29;19933;-77
2022/09/20 03:17:47;;;;;;;;;;;9.40;99.90;;;;;;4926831;29;19966;-77
2022/09/20 03:20:20;;;;;;;;;;;9.40;99.90;;;;;;4932794;29;19930;-78
2022/09/20 03:22:53;;;;;;;;;;;9.40;99.90;;;;;;4937227;29;20021;-78
2022/09/20 03:25:38;;;;;;;;;;;9.40;99.90;;;;;;4935123;29;20021;-80
2022/09/20 03:28:10;;;;;;;;;;;9.40;99.90;;;;;;4929242;29;20022;-78
2022/09/20 03:30:45;;;;;;;;;;;9.40;99.90;;;;;;4929774;29;20309;-78
2022/09/20 03:33:19;;;;;;;;;;;9.40;99.90;;;;;;4931976;29;19935;-78
2022/09/20 03:35:53;;;;;;;;;;;9.40;99.90;;;;;;4929269;29;19982;-77
2022/09/20 03:38:29;;;;;;;;;;;9.40;99.90;;;;;;4929976;29;19931;-77
2022/09/20 03:41:02;;;;;;;;;;;9.40;99.90;;;;;;4930790;29;19931;-78
2022/09/20 03:43:34;;;;;;;;;;;9.40;99.90;;;;;;4933430;29;19962;-77
2022/09/20 03:46:10;;;;;;;;;;;9.40;99.90;;;;;;4949426;28;20013;-78
2022/09/20 03:48:49;;;;;;;;;;;9.40;99.90;;;;;;4927786;29;20022;-79
2022/09/20 03:51:22;;;;;;;;;;;9.40;99.90;;;;;;4939317;29;20369;-78
2022/09/20 03:53:58;;;;;;;;;;;9.40;99.90;;;;;;4934767;29;23220;-77
2022/09/20 03:56:49;;;;;;;;;;;9.40;99.90;;;;;;4931640;29;20014;-77
2022/09/20 03:59:26;;;;;;;;;;;9.30;99.90;;;;;;4918345;29;20453;-77
2022/09/20 04:02:05;;;;;;;;;;;9.40;99.90;;;;;;4930116;29;20546;-79
2022/09/20 04:04:38;;;;;;;;;;;9.40;99.90;;;;;;4930308;29;19998;-77
2022/09/20 04:07:11;;;;;;;;;;;9.40;99.90;;;;;;4920223;29;19927;-78
2022/09/20 04:09:43;;;;;;;;;;;9.40;99.90;;;;;;4928324;29;19926;-78
2022/09/20 04:12:15;;;;;;;;;;;9.30;99.90;;;;;;4927201;29;20285;-78
2022/09/20 04:14:46;;;;;;;;;;;9.30;99.90;;;;;;4928887;29;19956;-77
2022/09/20 04:17:20;;;;;;;;;;;9.30;99.90;;;;;;4930820;29;20318;-77
2022/09/20 04:19:51;;;;;;;;;;;9.30;99.90;;;;;;4926757;29;20354;-79
2022/09/20 04:22:19;;;;;;;;;;;9.30;99.90;;;;;;4942141;28;19933;-77
2022/09/20 04:24:50;;;;;;;;;;;9.30;99.90;;;;;;4927983;29;19926;-77
2022/09/20 04:27:18;;;;;;;;;;;9.30;99.90;;;;;;4932372;29;19970;-76
2022/09/20 04:29:49;;;;;;;;;;;9.30;99.90;;;;;;4926557;28;19945;-78
2022/09/20 04:32:19;;;;;;;;;;;9.30;99.90;;;;;;4926404;29;19935;-79
2022/09/20 04:37:35;;;;;;;;;;;9.30;99.90;;;;;;4935028;29;20398;-77
2022/09/20 04:40:07;;;;;;;;;;;9.30;99.90;;;;;;4924103;28;19990;-77
2022/09/20 04:43:05;;;;;;;;;;;9.30;99.90;;;;;;4926564;29;20017;-76
2022/09/20 04:45:58;;;;;;;;;;;9.30;99.90;;;;;;4925324;29;19930;-76
2022/09/20 04:48:46;;;;;;;;;;;9.30;99.90;;;;;;4886829;28;19949;-76
2022/09/20 04:51:33;;;;;;;;;;;9.30;99.90;;;;;;4933062;29;19934;-76
2022/09/20 04:54:10;;;;;;;;;;;9.30;99.90;;;;;;4897232;29;19970;-77
2022/09/20 04:56:46;;;;;;;;;;;9.30;99.90;;;;;;4926734;29;20409;-76
2022/09/20 04:59:18;;;;;;;;;;;9.30;99.90;;;;;;4926227;29;19931;-76
2022/09/20 05:02:09;;;;;;;;;;;9.30;99.90;;;;;;4934243;29;19937;-76
2022/09/20 05:05:06;;;;;;;;;;;9.20;99.90;;;;;;4924025;29;19962;-78
2022/09/20 05:07:47;;;;;;;;;;;9.20;99.90;;;;;;4878852;29;20438;-77
2022/09/20 05:10:23;;;;;;;;;;;9.20;99.90;;;;;;4914934;29;19970;-76
2022/09/20 05:12:59;;;;;;;;;;;9.20;99.90;;;;;;4919810;29;19974;-76
2022/09/20 05:15:34;;;;;;;;;;;9.20;99.90;;;;;;4926036;29;19939;-76
2022/09/20 05:18:11;;;;;;;;;;;9.10;99.90;;;;;;4928425;29;19926;-77
2022/09/20 05:20:47;;;;;;;;;;;9.10;99.90;;;;;;4916370;29;19935;-77
2022/09/20 05:23:24;;;;;;;;;;;9.10;99.90;;;;;;4922506;29;19954;-77
2022/09/20 05:26:05;;;;;;;;;;;9.20;99.90;;;;;;4923980;29;20022;-77
2022/09/20 05:28:36;;;;;;;;;;;9.10;99.90;;;;;;4928941;29;20317;-77
2022/09/20 05:31:05;;;;;;;;;;;9.20;99.90;;;;;;4929756;29;20660;-77
2022/09/20 05:33:34;;;;;;;;;;;9.20;99.90;;;;;;4922819;29;20177;-77
2022/09/20 05:36:07;;;;;;;;;;;9.20;99.90;;;;;;4932034;29;20017;-76
2022/09/20 05:38:41;;;;;;;;;;;9.20;99.90;;;;;;4922848;29;19977;-78
2022/09/20 05:41:13;;;;;;;;;;;9.20;99.90;;;;;;4926791;29;19927;-76
2022/09/20 05:43:48;;;;;;;;;;;9.20;99.90;;;;;;4927949;29;19934;-77
2022/09/20 05:46:16;;;;;;;;;;;9.20;99.90;;;;;;4924358;29;19927;-77
2022/09/20 05:48:52;;;;;;;;;;;9.20;99.90;;;;;;4924488;29;19941;-77
2022/09/20 05:51:25;;;;;;;;;;;9.20;99.90;;;;;;4936820;29;19969;-78
2022/09/20 05:54:16;;;;;;;;;;;9.20;99.90;;;;;;4937098;28;20014;-77
2022/09/20 05:56:48;;;;;;;;;;;9.20;99.90;;;;;;4908011;29;20492;-77
2022/09/20 05:59:36;;;;;;;;;;;9.20;99.90;;;;;;4933233;29;20395;-77
2022/09/20 06:02:19;;;;;;;;;;;9.10;99.90;;;;;;4938960;29;19935;-77
2022/09/20 06:04:51;;;;;;;;;;;9.10;99.90;;;;;;4932411;29;20013;-78
2022/09/20 06:07:22;;;;;;;;;;;9.20;99.90;;;;;;4934138;29;20009;-77
2022/09/20 06:10:00;;;;;;;;;;;9.20;99.90;;;;;;4930968;28;20370;-77
2022/09/20 06:12:36;;;;;;;;;;;9.20;99.90;;;;;;4929052;29;20428;-78
2022/09/20 06:15:10;;;;;;;;;;;9.20;99.90;;;;;;4932193;28;19934;-77
2022/09/20 06:17:40;;;;;;;;;;;9.10;99.90;;;;;;4922832;29;19930;-78
2022/09/20 06:20:15;;;;;;;;;;;9.10;99.90;;;;;;4924071;28;20029;-78
2022/09/20 06:22:44;;;;;;;;;;;9.20;99.90;;;;;;4922234;29;20036;-77
2022/09/20 06:25:15;;;;;;;;;;;9.20;99.90;;;;;;4908166;29;19927;-78
2022/09/20 06:27:47;;;;;;;;;;;9.20;99.90;;;;;;4900288;29;20021;-77
2022/09/20 06:30:16;;;;;;;;;;;9.20;99.90;;;;;;4919764;29;19956;-78
2022/09/20 06:32:53;;;;;;;;;;;9.20;99.90;;;;;;4917824;29;19927;-76
2022/09/20 06:35:21;;;;;;;;;;;9.20;99.90;;;;;;4916842;29;19928;-77
2022/09/20 06:43:25;;;;;;;;;;;9.20;99.90;;;;;;4924690;29;19931;-77
2022/09/20 06:45:52;;;;;;;;;;;9.20;99.90;;;;;;4916737;29;19927;-78
2022/09/20 06:48:19;;;;;;;;;;;9.10;99.90;;;;;;4912885;29;20365;-77
2022/09/20 06:50:51;;;;;;;;;;;9.20;99.90;;;;;;4915639;28;19978;-78
2022/09/20 06:53:20;;;;;;;;;;;9.20;99.90;;;;;;4920215;29;19937;-77
2022/09/20 06:55:47;;;;;;;;;;;9.20;99.90;;;;;;4918719;29;19935;-77
2022/09/20 06:58:14;;;;;;;;;;;9.20;99.90;;;;;;4919435;29;19931;-77
2022/09/20 07:00:45;;;;;;;;;;;9.20;99.90;;;;;;4910910;29;20110;-77
2022/09/20 07:03:12;;;;;;;;;;;9.20;99.90;;;;;;4912682;29;20887;-77
2022/09/20 07:05:39;;;;;;;;;;;9.20;99.90;;;;;;4913001;29;19935;-77
2022/09/20 07:08:06;;;;;;;;;;;9.20;99.90;;;;;;4918950;29;19969;-77
2022/09/20 07:10:34;;;;;;;;;;;9.20;99.90;;;;;;4917684;29;19934;-76
2022/09/20 07:13:01;;;;;;;;;;;9.20;99.90;;;;;;4918560;29;19926;-77
2022/09/20 07:15:29;;;;;;;;;;;9.20;99.90;;;;;;4917832;29;19941;-77
2022/09/20 07:17:57;;;;;;;;;;;9.20;99.90;;;;;;4916368;29;19934;-78
2022/09/20 07:20:24;;;;;;;;;;;9.20;99.90;;;;;;4910889;29;20134;-77
2022/09/20 07:22:51;;;;;;;;;;;9.20;99.90;;;;;;4920004;29;19933;-76
2022/09/20 07:25:21;;;;;;;;;;;9.20;99.90;;;;;;4916379;29;19942;-78
2022/09/20 07:27:49;;;;;;;;;;;9.20;99.90;;;;;;4910392;29;20302;-77
2022/09/20 07:30:16;;;;;;;;;;;9.20;99.90;;;;;;4918301;29;19935;-78
2022/09/20 07:32:43;;;;;;;;;;;9.20;99.90;;;;;;4923634;29;19931;-78
2022/09/20 07:35:11;;;;;;;;;;;9.20;99.90;;;;;;4929798;29;20045;-78
2022/09/20 07:37:40;;;;;;;;;;;9.30;99.90;;;;;;4926931;29;19926;-77
2022/09/20 07:40:08;;;;;;;;;;;9.30;99.90;;;;;;4915316;28;20287;-78
2022/09/20 07:42:35;;;;;;;;;;;9.30;99.90;;;;;;4923508;29;20033;-77
2022/09/20 07:45:02;;;;;;;;;;;9.30;99.90;;;;;;4920258;29;19927;-77
2022/09/20 07:47:30;;;;;;;;;;;9.30;99.90;;;;;;4917129;29;19931;-78
2022/09/20 07:49:57;;;;;;;;;;;9.30;99.90;;;;;;4917100;28;19927;-77
2022/09/20 07:52:25;;;;;;;;;;;9.30;99.90;;;;;;4920828;29;20293;-77
2022/09/20 07:54:52;;;;;;;;;;;9.40;99.90;;;;;;4920757;29;20302;-77
2022/09/20 07:57:19;;;;;;;;;;;9.40;99.90;;;;;;4914745;28;19926;-77
2022/09/20 07:59:46;;;;;;;;;;;9.40;99.90;;;;;;4921310;29;19927;-77
2022/09/20 08:02:14;;;;;;;;;;;9.40;99.90;;;;;;4926384;29;19926;-78
2022/09/20 08:04:40;;;;;;;;;;;9.40;99.90;;;;;;4921983;28;20358;-77
2022/09/20 08:07:07;;;;;;;;;;;9.40;99.90;;;;;;4921253;29;19927;-77
2022/09/20 08:09:35;;;;;;;;;;;9.40;99.90;;;;;;4919027;28;20112;-77
2022/09/20 08:12:02;;;;;;;;;;;9.40;99.90;;;;;;4923115;29;20449;-78
2022/09/20 08:14:29;;;;;;;;;;;9.40;99.90;;;;;;4920217;29;19934;-78
2022/09/20 08:16:59;;;;;;;;;;;9.50;99.90;;;;;;4917388;29;20017;-78
2022/09/20 08:19:26;;;;;;;;;;;9.40;99.90;;;;;;4932009;28;19937;-77
2022/09/20 08:21:53;;;;;;;;;;;9.50;99.90;;;;;;4924597;29;19931;-77
2022/09/20 08:24:20;;;;;;;;;;;9.50;99.90;;;;;;4918170;29;20018;-78
2022/09/20 08:26:48;;;;;;;;;;;9.50;99.90;;;;;;4917213;29;19931;-77
2022/09/20 08:29:15;;;;;;;;;;;9.50;99.90;;;;;;4921171;29;20014;-78
2022/09/20 08:31:42;;;;;;;;;;;9.50;99.90;;;;;;4918711;29;19934;-78
2022/09/20 08:34:10;;;;;;;;;;;9.60;99.90;;;;;;4920950;29;20025;-77
2022/09/20 08:36:39;;;;;;;;;;;9.60;99.90;;;;;;4915087;29;19966;-78
2022/09/20 08:39:07;;;;;;;;;;;9.60;99.90;;;;;;4920656;29;20420;-77
2022/09/20 08:41:35;;;;;;;;;;;9.60;99.90;;;;;;4922434;29;20367;-77
2022/09/20 08:44:05;;;;;;;;;;;9.60;99.90;;;;;;4920179;29;19934;-78
2022/09/20 08:46:34;;;;;;;;;;;9.60;99.90;;;;;;4916155;29;19934;-77
2022/09/20 08:49:03;;;;;;;;;;;9.70;99.90;;;;;;4940267;28;19942;-77
2022/09/20 08:51:33;;;;;;;;;;;9.70;99.90;;;;;;4926031;29;20412;-78
2022/09/20 08:54:00;;;;;;;;;;;9.70;99.90;;;;;;4919392;29;19985;-76
2022/09/20 08:56:29;;;;;;;;;;;9.70;99.90;;;;;;4916465;29;19966;-77
2022/09/20 08:58:58;;;;;;;;;;;9.70;99.90;;;;;;4922522;28;20025;-77
2022/09/20 09:01:28;;;;;;;;;;;9.70;99.90;;;;;;4911162;29;19965;-77
2022/09/20 09:03:58;;;;;;;;;;;9.70;99.90;;;;;;4915645;29;19942;-77
2022/09/20 09:06:25;;;;;;;;;;;9.70;99.90;;;;;;4920132;29;20021;-78
2022/09/20 09:08:53;;;;;;;;;;;9.70;99.90;;;;;;4913674;28;19938;-77
2022/09/20 09:11:22;;;;;;;;;;;9.80;99.90;;;;;;4915511;29;20453;-77
2022/09/20 09:13:52;;;;;;;;;;;9.70;99.90;;;;;;4919686;28;19927;-77
2022/09/20 09:16:20;;;;;;;;;;;9.80;99.90;;;;;;4914007;29;19935;-77
2022/09/20 09:18:49;;;;;;;;;;;9.70;99.90;;;;;;4919618;29;19931;-77
2022/09/20 09:21:18;;;;;;;;;;;9.80;99.90;;;;;;4913235;29;19986;-77
2022/09/20 09:23:49;;;;;;;;;;;9.80;99.90;;;;;;4917517;29;19934;-78
2022/09/20 09:26:17;;;;;;;;;;;9.80;99.90;;;;;;4918050;29;19930;-77
2022/09/20 09:28:44;;;;;;;;;;;9.80;99.90;;;;;;4912619;29;19993;-76
2022/09/20 09:31:12;;;;;;;;;;;9.80;99.90;;;;;;4932519;28;20040;-77
2022/09/20 09:33:43;;;;;;;;;;;9.80;99.90;;;;;;4919018;29;19926;-77
2022/09/20 09:36:13;;;;;;;;;;;9.80;99.90;;;;;;4920280;29;20022;-77
2022/09/20 09:38:43;;;;;;;;;;;9.80;99.90;;;;;;4914697;29;20029;-78
2022/09/20 09:41:23;;;;;;;;;;;9.80;99.90;;;;;;4930075;28;20511;-77
2022/09/20 09:43:58;;;;;;;;;;;9.80;99.90;;;;;;4922387;29;19931;-77
2022/09/20 09:46:26;;;;;;;;;;;9.90;99.90;;;;;;4917716;29;19926;-78
2022/09/20 09:49:06;;;;;;;;;;;9.90;99.90;;;;;;4918595;29;20394;-77
2022/09/20 09:51:34;;;;;;;;;;;9.90;99.90;;;;;;4913983;29;19991;-76
2022/09/20 09:54:01;;;;;;;;;;;9.90;99.90;;;;;;4917836;29;20289;-77
2022/09/20 09:56:41;;;;;;;;;;;9.90;99.90;;;;;;4917056;29;20009;-77
2022/09/20 09:59:19;;;;;;;;;;;9.90;99.90;;;;;;4914227;29;19943;-78
2022/09/20 10:01:54;;;;;;;;;;;9.80;99.90;;;;;;4918079;29;20171;-76
2022/09/20 10:04:24;;;;;;;;;;;9.90;99.90;;;;;;4919192;29;20021;-76
2022/09/20 10:06:54;;;;;;;;;;;9.90;99.90;;;;;;4916130;29;19930;-77
2022/09/20 10:09:32;;;;;;;;;;;10.00;99.90;;;;;;4920993;29;19982;-77
2022/09/20 10:12:18;;;;;;;;;;;10.00;99.90;;;;;;4921015;29;19962;-77
2022/09/20 10:14:53;;;;;;;;;;;9.90;99.90;;;;;;4911957;29;19926;-77
2022/09/20 10:17:30;;;;;;;;;;;10.00;99.90;;;;;;4922764;29;19970;-77
2022/09/20 10:20:04;;;;;;;;;;;10.00;99.90;;;;;;4915588;29;20333;-77
2022/09/20 10:22:36;;;;;;;;;;;10.00;99.90;;;;;;4916284;29;19930;-78
2022/09/20 10:25:10;;;;;;;;;;;10.00;99.90;;;;;;4927335;28;19942;-77
2022/09/20 10:27:43;;;;;;;;;;;10.00;99.90;;;;;;4913849;29;19927;-77
2022/09/20 10:30:14;;;;;;;;;;;10.00;99.90;;;;;;4907122;29;20378;-77
2022/09/20 10:32:48;;;;;;;;;;;10.00;99.90;;;;;;4920153;29;19933;-77
2022/09/20 10:35:33;;;;;;;;;;;10.10;99.90;;;;;;4912615;29;19937;-77
2022/09/20 10:38:15;;;;;;;;;;;10.10;99.90;;;;;;4917322;29;19953;-78
2022/09/20 10:43:40;;;;;;;;;;;10.10;99.90;;;;;;4919000;29;19930;-78
2022/09/20 10:46:13;;;;;;;;;;;10.10;99.90;;;;;;4913384;29;19931;-77
2022/09/20 10:48:41;;;;;;;;;;;10.10;99.90;;;;;;4916768;29;20389;-76
2022/09/20 10:51:14;;;;;;;;;;;10.10;99.90;;;;;;4918060;29;20425;-77
2022/09/20 10:53:46;;;;;;;;;;;10.10;99.90;;;;;;4912116;29;19942;-77
2022/09/20 10:56:23;;;;;;;;;;;10.20;99.90;;;;;;4925318;29;19973;-77
2022/09/20 10:59:23;;;;;;;;;;;10.10;99.90;;;;;;4919228;29;19938;-77
2022/09/20 11:02:01;;;;;;;;;;;10.20;99.90;;;;;;4927203;29;20093;-77
2022/09/20 11:04:45;;;;;;;;;;;10.20;99.90;;;;;;4919056;29;20018;-78
2022/09/20 11:07:17;;;;;;;;;;;10.20;99.90;;;;;;4922178;29;19926;-77
2022/09/20 11:09:48;;;;;;;;;;;10.20;99.90;;;;;;4916056;29;19942;-78
2022/09/20 11:12:17;;;;;;;;;;;10.20;99.90;;;;;;4909988;29;20047;-78
2022/09/20 11:14:48;;;;;;;;;;;10.20;99.90;;;;;;4906560;29;20409;-77
2022/09/20 11:17:17;;;;;;;;;;;10.20;99.90;;;;;;4908474;29;19938;-77
2022/09/20 11:19:48;;;;;;;;;;;10.30;99.90;;;;;;4914528;29;20022;-79
2022/09/20 11:22:18;;;;;;;;;;;10.30;99.80;;;;;;4914118;29;20409;-77
2022/09/20 11:24:47;;;;;;;;;;;10.30;99.70;;;;;;4912548;29;19926;-77
2022/09/20 11:27:18;;;;;;;;;;;10.30;99.80;;;;;;4921763;29;20021;-78
2022/09/20 11:29:49;;;;;;;;;;;10.30;99.60;;;;;;4932694;28;20417;-78
2022/09/20 11:32:18;;;;;;;;;;;10.40;99.50;;;;;;4926106;29;19934;-78
2022/09/20 11:34:50;;;;;;;;;;;10.40;99.50;;;;;;4929568;29;19931;-78
2022/09/20 11:37:18;;;;;;;;;;;10.40;99.40;;;;;;4928608;29;20416;-80
2022/09/20 11:39:50;;;;;;;;;;;10.40;99.40;;;;;;4935748;29;19927;-80
2022/09/20 11:42:20;;;;;;;;;;;10.40;99.30;;;;;;4929334;29;20268;-77
2022/09/20 11:44:47;;;;;;;;;;;10.40;99.30;;;;;;4923569;29;20419;-78
2022/09/20 11:47:16;;;;;;;;;;;10.40;99.10;;;;;;4924053;29;19966;-79
2022/09/20 11:49:49;;;;;;;;;;;10.40;99.10;;;;;;4931060;28;19937;-78
2022/09/20 11:52:27;;;;;;;;;;;10.50;99.20;;;;;;4911034;29;19949;-79
2022/09/20 11:55:20;;;;;;;;;;;10.50;99.20;;;;;;4914175;29;20045;-77
2022/09/20 11:57:58;;;;;;;;;;;10.50;99.20;;;;;;4905896;29;19938;-78
2022/09/20 12:00:28;;;;;;;;;;;10.50;99.20;;;;;;4908552;29;19931;-78
2022/09/20 12:02:55;;;;;;;;;;;10.50;99.30;;;;;;4910549;29;20468;-77
2022/09/20 12:05:27;;;;;;;;;;;10.50;99.20;;;;;;4911319;29;20332;-78
2022/09/20 12:07:55;;;;;;;;;;;10.60;99.30;;;;;;4919311;29;20635;-74
2022/09/20 12:10:24;;;;;;;;;;;10.60;99.40;;;;;;4916565;29;20482;-78
2022/09/20 12:12:55;;;;;;;;;;;10.60;99.50;;;;;;4911010;29;20070;-77
2022/09/20 12:15:24;;;;;;;;;;;10.70;99.60;;;;;;4917631;29;19926;-77
2022/09/20 12:18:08;;;;;;;;;;;10.70;99.60;;;;;;4911118;29;21860;-78
2022/09/20 12:20:53;;;;;;;;;;;10.80;99.60;;;;;;4913835;29;19934;-79
2022/09/20 12:23:35;;;;;;;;;;;10.80;99.60;;;;;;4915631;29;20413;-78
2022/09/20 12:26:04;;;;;;;;;;;10.80;99.60;;;;;;4882967;29;20033;-78
2022/09/20 12:28:35;;;;;;;;;;;10.90;99.70;;;;;;4913349;29;19978;-78
2022/09/20 12:31:21;;;;;;;;;;;10.90;99.70;;;;;;4919539;29;19934;-78
2022/09/20 12:33:58;;;;;;;;;;;11.00;99.70;;;;;;4911490;29;19935;-78
2022/09/20 12:36:25;;;;;;;;;;;11.10;99.70;;;;;;4913472;29;20365;-78
2022/09/20 12:39:04;;;;;;;;;;;11.10;99.50;;;;;;4909903;29;19935;-79
2022/09/20 12:41:46;;;;;;;;;;;11.10;99.50;;;;;;4915490;29;20402;-78
2022/09/20 12:44:23;;;;;;;;;;;11.20;99.40;;;;;;4912679;29;19943;-78
2022/09/20 12:46:52;;;;;;;;;;;11.20;99.40;;;;;;4904361;29;19941;-79
2022/09/20 12:54:50;;;;;;;;;;;11.20;99.60;;;;;;4914711;29;19962;-78
2022/09/20 12:57:27;;;;;;;;;;;11.30;99.50;;;;;;4930951;28;20197;-77
2022/09/20 12:59:55;;;;;;;;;;;11.40;99.70;;;;;;4913136;29;20697;-78
2022/09/20 13:02:37;;;;;;;;;;;11.40;99.20;;;;;;4923215;29;19934;-79
2022/09/20 13:05:30;;;;;;;;;;;11.40;99.10;;;;;;4911781;29;19978;-78
2022/09/20 13:08:01;;;;;;;;;;;11.40;99.00;;;;;;4904674;29;20625;-78
2022/09/20 13:10:30;;;;;;;;;;;11.40;99.10;;;;;;4921406;29;19926;-78
2022/09/20 13:13:03;;;;;;;;;;;11.50;99.00;;;;;;4924046;29;19935;-77
2022/09/20 13:15:32;;;;;;;;;;;11.50;98.80;;;;;;4927661;29;19939;-79
2022/09/20 13:18:01;;;;;;;;;;;11.60;98.80;;;;;;4924443;29;20663;-80
2022/09/20 13:20:35;;;;;;;;;;;11.60;98.80;;;;;;4913951;29;20337;-78
2022/09/20 13:23:03;;;;;;;;;;;11.60;98.80;;;;;;4913717;29;20414;-78
2022/09/20 13:25:33;;;;;;;;;;;11.70;98.80;;;;;;4911840;29;19935;-77
2022/09/20 13:28:08;;;;;;;;;;;11.70;98.80;;;;;;4917674;29;19935;-75
2022/09/20 13:30:41;;;;;;;;;;;11.70;98.70;;;;;;4925460;29;19935;-78
2022/09/20 13:33:16;;;;;;;;;;;11.80;98.50;;;;;;4924980;29;19956;-78
2022/09/20 13:35:43;;;;;;;;;;;11.80;98.40;;;;;;4917422;29;19926;-79
2022/09/20 13:38:10;;;;;;;;;;;11.90;98.40;;;;;;4923289;29;19926;-78
2022/09/20 13:40:38;;;;;;;;;;;11.90;98.40;;;;;;4914003;29;20306;-77
2022/09/20 14:27:00;;;;;;;;;;;12.60;97.20;;;;;;4943495;29;20134;-85
2022/09/20 14:29:53;;;;;;;;;;;12.60;97.30;;;;;;5349542;23;19969;-82
2022/09/20 14:40:41;;;;;;;;;;;12.70;97.30;;;;;;4980052;23;19959;-81
2022/09/20 14:43:21;;;;;;;;;;;12.70;97.40;;;;;;4934910;28;19934;-81
2022/09/20 14:45:53;;;;;;;;;;;12.70;97.50;;;;;;4927025;28;19958;-81
2022/09/20 15:16:02;;;;;;;;;;;12.90;97.50;;;;;;5084145;23;19961;-88
2022/09/20 15:21:26;;;;;;;;;;;13.00;97.80;;;;;;5233947;23;19994;-90
2022/09/20 15:26:43;;;;;;;;;;;13.00;97.70;;;;;;5115724;23;19950;-90
2022/09/20 15:31:55;;;;;;;;;;;13.00;97.90;;;;;;5037188;23;19915;-90
2022/09/20 15:34:22;;;;;;;;;;;12.90;97.90;;;;;;4949979;28;19953;-89
2022/09/20 15:36:51;;;;;;;;;;;13.00;98.00;;;;;;4951512;28;19912;-92
2022/09/20 15:39:20;;;;;;;;;;;13.00;98.00;;;;;;4969114;28;20016;-90
2022/09/20 15:41:48;;;;;;;;;;;13.00;97.90;;;;;;4983645;23;19923;-88
2022/09/20 15:44:18;;;;;;;;;;;13.00;97.80;;;;;;4998099;23;19927;-91
2022/09/20 15:46:47;;;;;;;;;;;13.10;97.70;;;;;;4970784;28;19931;-89
2022/09/20 15:49:15;;;;;;;;;;;13.10;97.50;;;;;;4969698;28;19941;-88
2022/09/20 15:51:43;;;;;;;;;;;13.00;97.30;;;;;;4978945;28;19930;-90
2022/09/20 15:54:12;;;;;;;;;;;13.00;97.10;;;;;;4966933;28;19923;-88
2022/09/20 15:56:39;;;;;;;;;;;13.10;96.80;;;;;;4977970;28;19914;-89
2022/09/20 15:59:07;;;;;;;;;;;13.10;96.80;;;;;;4972965;28;19922;-90
2022/09/20 16:01:38;;;;;;;;;;;13.10;96.80;;;;;;4975800;28;19965;-90
2022/09/20 16:04:06;;;;;;;;;;;13.10;96.80;;;;;;4973999;28;19922;-90
2022/09/20 16:06:34;;;;;;;;;;;13.10;96.80;;;;;;4978433;28;19923;-89
2022/09/20 16:09:03;;;;;;;;;;;13.10;96.90;;;;;;4972191;28;19926;-91
2022/09/20 16:11:31;;;;;;;;;;;13.10;97.00;;;;;;4967122;28;19917;-92
2022/09/20 16:13:59;;;;;;;;;;;13.10;97.00;;;;;;4971920;28;19929;-91
2022/09/20 16:16:27;;;;;;;;;;;13.10;96.90;;;;;;5000357;23;20021;-91
2022/09/20 16:28:19;;;;;;;;;;;13.20;97.30;;;;;;5314519;23;19920;-91
2022/09/20 16:33:43;;;;;;;;;;;13.10;97.20;;;;;;5021012;23;19914;-92
2022/09/20 16:36:14;;;;;;;;;;;13.10;97.50;;;;;;5009659;28;20169;-91
2022/09/20 16:38:43;;;;;;;;;;;13.10;97.50;;;;;;4997388;28;20009;-90
2022/09/20 16:41:10;;;;;;;;;;;13.10;97.30;;;;;;4991729;28;19929;-91
2022/09/20 16:43:40;;;;;;;;;;;13.20;97.20;;;;;;4999174;28;19916;-88
2022/09/20 16:46:08;;;;;;;;;;;13.10;97.20;;;;;;4998469;28;19956;-89
2022/09/20 16:48:36;;;;;;;;;;;13.20;97.00;;;;;;4993503;28;20482;-88
2022/09/20 16:51:05;;;;;;;;;;;13.10;96.80;;;;;;5005850;28;19957;-88